Sabiti — H3SE — position and weather

sailwx.info

Track history (hours):
 
Tides and Currents Weather Stations Pressure Air Temp Water Temp Dewpoint Dewpoint Depression Visibility Wind Speed Wind Dir Waves Ship Positions

Sabiti

Last reported at 2016-Jul-26 14:19 UTC. Time now 2016-Jul-26 21:50 UTC.
Position N 31°24' E 032°17'.

Length 274 m; draft 9.2 m.

Type: Tanker. MMSI: 356868000.

Date/timePositionNaut miles runAvg speedWind from/ knotsBaromVisibWave heightAir tempDewpointWater temp
2016-Jul-26 14:19N 31°24' E 032°17'15 2.0
2016-Jul-26 06:29N 31°37' E 032°07'8213.8
2016-Jul-26 00:32N 32°35' E 030°59'1514.4
2016-Jul-25 23:30N 32°46' E 030°47'1414.0
2016-Jul-25 22:31N 32°56' E 030°36'1613.7
2016-Jul-25 21:22N 33°08' E 030°24'1113.6
2016-Jul-25 20:33N 33°16' E 030°15'1613.9
2016-Jul-25 19:25N 33°28' E 030°02'2713.8
2016-Jul-25 17:31N 33°47' E 029°41'1414.0
2016-Jul-25 16:31N 33°58' E 029°29'1414.0
2016-Jul-25 15:33N 34°08' E 029°19'25214.0
2016-Jul-24 21:34N 37°14' E 025°49'  
2016-Jul-18 07:32N 37°17' E 025°48'  
Track history (hours):
 
Tides and Currents Weather Stations Pressure Air Temp Water Temp Dewpoint Dewpoint Depression Visibility Wind Speed Wind Dir Waves Ship Positions

Sabiti

Last reported at 2016-Jul-26 14:19 UTC. Time now 2016-Jul-26 21:50 UTC.
Position N 31°24' E 032°17'.

Length 274 m; draft 9.2 m.

Type: Tanker. MMSI: 356868000.

Date/timePositionNaut miles runAvg speedWind from/ knotsBaromVisibWave heightAir tempDewpointWater temp
2016-Jul-26 14:19N 31°24' E 032°17'15 2.0
2016-Jul-26 06:29N 31°37' E 032°07'8213.8
2016-Jul-26 00:32N 32°35' E 030°59'1514.4
2016-Jul-25 23:30N 32°46' E 030°47'1414.0
2016-Jul-25 22:31N 32°56' E 030°36'1613.7
2016-Jul-25 21:22N 33°08' E 030°24'1113.6
2016-Jul-25 20:33N 33°16' E 030°15'1613.9
2016-Jul-25 19:25N 33°28' E 030°02'2713.8
2016-Jul-25 17:31N 33°47' E 029°41'1414.0
2016-Jul-25 16:31N 33°58' E 029°29'1414.0
2016-Jul-25 15:33N 34°08' E 029°19'25214.0
2016-Jul-24 21:34N 37°14' E 025°49'  
2016-Jul-18 07:32N 37°17' E 025°48'  

Dump ship's entire track history